Aérodrome :
LOGIN :

S'inscrire | Disclaimer

   EN    FR    IT 

 










Légende :    VFR   VFR Marginal   IFR   IFR Intensif   IFR Très Intensif
Visi : 
Plafond : 
>= 8 km
>= 3000ft
5 à 8 km
1000 à 3000 ft
1500m à 5 km
500 à 1000 ft
800 à 1500m
200 à 500 ft
< 800m
< 200 ft
Symboles :   Orages  Brouillard  Fortes neiges  Fortes précipitations  Vent > 20 kt
SIGMETs :   Divers  Orages  Givrage  Turbulence  Onde Orograph.  Cendres Volcan.






- Altitude de l'aérodrome : 348 ft
- Code IATA : LDV


LFRJ - Landivisiau

DERNIER METAR :
  • 281600Z AUTO 22019KT 9000 1900 RA SCT017/// BKN031/// BKN039/// ///CB 14/12 Q1015 TEMPO 22020G30KT 1500 TSRA BKN010CB

METARs EXPIRÉS :
  • 281530Z AUTO 22020KT 9999 -RA SCT019/// SCT040/// BKN056/// ///CB 15/13 Q1014 TEMPO 22020G30KT 1500 TSRA BKN010CB
  • 281500Z AUTO 22016G27KT 9999 -RA BKN021/// BKN031/// BKN045/// ///TCU 16/13 Q1015 TEMPO 1500 TSRA BKN010CB
  • 281430Z AUTO 21017KT 180V240 9999 BKN025/// BKN031/// BKN037/// ///TCU 17/12 Q1015 TEMPO 1500 +TSRA BKN010CB
  • 281400Z AUTO 21019KT 9999 BKN025 BKN032 BKN040 17/13 Q1015 TEMPO 22020G35KT 2000 TSRA BKN008 BKN010CB
  • 281330Z AUTO 22019KT 9999 BKN024/// BKN029/// BKN038/// ///TCU 18/12 Q1016 TEMPO 22020G35KT 2000 TSRA BKN008 BKN010CB

TAF AMD TAF LFRJ
Valide du 28 à 15h jusqu'au 29 à 00h UTC


281442Z 2815/2824 22015KT 9999 BKN025
TEMPO 2815/2824 22020G30KT 4000 SHRA BKN015CB
PROB40 2815/2819 1500 TSRA BKN010CB



MET'MAP, la Météo Aéronautique d'un coup d'oeil ! - Copyright ORBIFLY Décembre 2007 - Disclaimer

ORBIFLY MET'MAP TEAM :

Programmation & Développement : Alexandra Zaïnal
Sur une idée originale de : Baudouin d'Aumeries
Assistance à la programmation : Marc-Olivier Méhu
Soutien technique & logistique : Manuel Goepfert

Contact : metmap@orbifly.com




SOURCES & CREDITS :

   NOAA